Time;durP1;ratioP1;P1;durP2;ratioP2;P2;SDS_P1;SDS_P2;PMS_P1;PMS_P2;Temp;Humidity;BMP_temperature;BMP_pressure;BME280_temperature;BME280_humidity;BME280_pressure;Samples;Min_cycle;Max_cycle;Signal;HPM_P1;HPM_P2
2023/02/17 00:01:58;;;;;;;0.60;0.43;;;19.50;69.20;;;;;;5051784;28;20025;-68
2023/02/17 00:04:26;;;;;;;0.45;0.45;;;19.50;69.30;;;;;;5051971;28;20082;-68
2023/02/17 00:06:51;;;;;;;0.50;0.30;;;19.60;69.40;;;;;;5034665;28;20089;-69
2023/02/17 00:09:17;;;;;;;0.82;0.50;;;19.60;69.60;;;;;;5041771;28;20104;-68
2023/02/17 00:11:43;;;;;;;0.50;0.50;;;19.50;69.60;;;;;;5031967;28;20060;-69
2023/02/17 00:14:10;;;;;;;1.52;0.60;;;19.50;69.60;;;;;;5031993;28;20064;-68
2023/02/17 00:16:36;;;;;;;0.57;0.43;;;19.60;69.90;;;;;;5030562;28;20010;-68
2023/02/17 00:19:22;;;;;;;0.73;0.57;;;19.50;69.90;;;;;;5032141;28;20395;-68
2023/02/17 00:21:50;;;;;;;1.38;0.70;;;19.50;70.00;;;;;;5032107;28;20416;-68
2023/02/17 00:24:16;;;;;;;0.63;0.60;;;19.50;70.00;;;;;;5030790;28;20156;-68
2023/02/17 00:26:41;;;;;;;1.13;0.60;;;19.50;70.00;;;;;;5032158;28;20495;-68
2023/02/17 00:29:07;;;;;;;2.78;0.50;;;19.50;70.20;;;;;;5034013;28;20128;-68
2023/02/17 00:31:33;;;;;;;0.75;0.50;;;19.50;70.20;;;;;;5035474;28;20030;-68
2023/02/17 00:33:58;;;;;;;0.73;0.40;;;19.50;70.20;;;;;;5035638;28;20025;-68
2023/02/17 00:36:24;;;;;;;2.97;0.45;;;19.50;70.20;;;;;;5035379;28;20048;-68
2023/02/17 00:38:50;;;;;;;0.50;0.50;;;19.50;70.20;;;;;;5051414;28;20127;-68
2023/02/17 00:41:17;;;;;;;2.08;0.40;;;19.60;70.20;;;;;;5037544;28;20451;-68
2023/02/17 00:43:42;;;;;;;1.13;0.52;;;19.50;70.20;;;;;;5054030;28;20475;-68
2023/02/17 00:46:08;;;;;;;1.10;0.55;;;19.50;70.30;;;;;;5055161;28;20025;-68
2023/02/17 00:48:33;;;;;;;2.08;0.57;;;19.50;70.30;;;;;;5053956;28;20491;-68
2023/02/17 00:50:59;;;;;;;0.50;0.50;;;19.60;70.40;;;;;;5055193;28;20175;-68
2023/02/17 00:53:25;;;;;;;1.70;0.50;;;19.50;70.30;;;;;;5053897;28;20462;-68
2023/02/17 00:55:50;;;;;;;1.02;0.40;;;19.50;70.40;;;;;;5055259;28;20017;-68
2023/02/17 00:58:16;;;;;;;0.45;0.45;;;19.50;70.40;;;;;;5055065;28;20075;-68
2023/02/17 01:00:42;;;;;;;1.10;0.38;;;19.50;70.50;;;;;;5054827;28;20053;-68
2023/02/17 01:03:07;;;;;;;0.43;0.35;;;19.50;71.50;;;;;;5055081;28;20036;-68
2023/02/17 01:05:33;;;;;;;1.77;0.60;;;19.50;70.60;;;;;;5053739;28;20021;-68
2023/02/17 01:07:59;;;;;;;0.95;0.45;;;19.50;70.50;;;;;;5053814;28;20391;-68
2023/02/17 01:10:24;;;;;;;1.33;0.43;;;19.50;70.60;;;;;;5036647;28;20049;-68
2023/02/17 01:12:50;;;;;;;3.22;0.40;;;19.50;70.60;;;;;;5034872;28;20514;-68
2023/02/17 01:15:16;;;;;;;0.40;0.40;;;19.50;70.70;;;;;;5034430;28;20152;-68
2023/02/17 01:17:41;;;;;;;2.08;0.73;;;19.50;70.70;;;;;;5034734;28;20476;-68
2023/02/17 01:20:07;;;;;;;0.50;0.40;;;19.50;70.70;;;;;;5033667;28;20030;-68
2023/02/17 01:22:33;;;;;;;0.30;0.30;;;19.50;70.80;;;;;;5033342;28;20504;-68
2023/02/17 01:24:59;;;;;;;0.55;0.45;;;19.50;70.80;;;;;;5033506;28;20155;-68
2023/02/17 01:27:24;;;;;;;1.17;0.50;;;19.40;70.70;;;;;;5034316;28;20033;-68
2023/02/17 01:29:50;;;;;;;3.00;0.50;;;19.40;70.80;;;;;;5033218;28;20032;-68
2023/02/17 01:32:16;;;;;;;2.65;0.47;;;19.40;70.80;;;;;;5034752;28;20022;-68
2023/02/17 01:34:41;;;;;;;0.30;0.30;;;19.40;70.80;;;;;;5033189;28;20025;-68
2023/02/17 01:37:07;;;;;;;0.47;0.32;;;19.40;70.80;;;;;;5037234;28;20070;-68
2023/02/17 01:39:32;;;;;;;1.40;0.70;;;19.40;70.80;;;;;;5053861;28;20032;-68
2023/02/17 01:41:58;;;;;;;4.10;0.70;;;19.40;70.80;;;;;;5053156;28;20048;-68
2023/02/17 01:44:24;;;;;;;1.70;0.40;;;19.40;70.80;;;;;;5053761;28;20108;-68
2023/02/17 01:46:51;;;;;;;0.90;0.43;;;19.40;70.90;;;;;;5054068;28;20074;-68
2023/02/17 01:49:28;;;;;;;0.68;0.30;;;19.40;71.90;;;;;;5052897;28;20176;-68
2023/02/17 01:52:11;;;;;;;0.60;0.60;;;19.40;70.90;;;;;;5052823;28;20027;-68
2023/02/17 01:54:41;;;;;;;3.10;0.52;;;19.40;70.90;;;;;;5053943;28;20057;-68
2023/02/17 01:57:06;;;;;;;0.38;0.35;;;19.40;70.90;;;;;;5036295;28;20053;-68
2023/02/17 01:59:32;;;;;;;0.80;0.60;;;19.40;71.00;;;;;;5053752;28;20064;-68
2023/02/17 02:01:59;;;;;;;0.60;0.60;;;19.40;71.00;;;;;;5052665;28;20112;-68
2023/02/17 02:04:26;;;;;;;0.40;0.40;;;19.40;71.10;;;;;;5052673;28;20059;-68
2023/02/17 02:06:52;;;;;;;1.58;0.52;;;19.40;71.10;;;;;;5052636;28;20024;-68
2023/02/17 02:09:19;;;;;;;0.57;0.45;;;19.40;71.00;;;;;;5043594;28;20033;-68
2023/02/17 02:11:48;;;;;;;2.55;0.70;;;19.40;71.10;;;;;;5032337;28;20567;-68
2023/02/17 02:14:13;;;;;;;0.68;0.40;;;19.40;71.10;;;;;;5032433;28;20026;-68
2023/02/17 02:16:50;;;;;;;0.82;0.45;;;19.40;71.10;;;;;;5032280;28;20022;-68
2023/02/17 02:20:07;;;;;;;0.80;0.47;;;19.40;71.10;;;;;;5032473;28;20550;-68
2023/02/17 02:22:46;;;;;;;2.03;0.40;;;19.40;71.10;;;;;;5031241;28;20116;-68
2023/02/17 02:25:22;;;;;;;0.70;0.50;;;19.40;71.20;;;;;;5015034;28;20041;-68
2023/02/17 02:28:25;;;;;;;1.63;0.40;;;19.40;71.20;;;;;;5014361;28;20053;-68
2023/02/17 02:31:05;;;;;;;0.40;0.40;;;19.40;71.20;;;;;;5031263;28;20038;-68
2023/02/17 02:33:46;;;;;;;2.60;0.50;;;19.40;71.40;;;;;;5014868;28;20033;-68
2023/02/17 02:36:20;;;;;;;3.70;0.57;;;19.40;72.30;;;;;;5016130;28;20025;-68
2023/02/17 02:38:57;;;;;;;0.80;0.40;;;19.30;71.30;;;;;;5031868;28;20028;-68
2023/02/17 02:41:45;;;;;;;1.42;0.60;;;19.30;71.30;;;;;;5019141;28;20115;-68
2023/02/17 02:44:12;;;;;;;0.40;0.40;;;19.40;71.40;;;;;;5034422;28;20048;-68
2023/02/17 02:46:38;;;;;;;0.43;0.40;;;19.30;71.50;;;;;;5034126;28;20037;-68
2023/02/17 02:49:03;;;;;;;1.65;0.43;;;19.40;71.60;;;;;;5033777;28;20032;-68
2023/02/17 02:51:51;;;;;;;1.45;0.40;;;19.30;71.50;;;;;;5017445;28;20083;-68
2023/02/17 02:54:22;;;;;;;0.50;0.40;;;19.40;71.70;;;;;;5037004;28;20032;-68
2023/02/17 02:56:52;;;;;;;0.65;0.35;;;19.30;71.60;;;;;;5051748;28;20041;-68
2023/02/17 02:59:33;;;;;;;0.35;0.35;;;19.30;71.70;;;;;;5051725;28;20017;-68
2023/02/17 03:02:15;;;;;;;0.80;0.50;;;19.30;71.70;;;;;;5052700;28;20025;-68
2023/02/17 03:04:56;;;;;;;0.40;0.35;;;19.30;71.70;;;;;;5036722;28;20557;-68
2023/02/17 03:07:53;;;;;;;1.30;0.30;;;19.40;71.90;;;;;;5051475;28;20033;-68
2023/02/17 03:10:18;;;;;;;0.52;0.50;;;19.40;72.00;;;;;;5020467;28;20029;-68
2023/02/17 03:12:44;;;;;;;2.05;0.63;;;19.30;71.90;;;;;;5031215;28;20052;-68
2023/02/17 03:15:25;;;;;;;0.88;0.50;;;19.40;72.00;;;;;;5032607;28;20032;-68
2023/02/17 03:17:51;;;;;;;0.55;0.30;;;19.40;72.00;;;;;;5031487;28;20492;-69
2023/02/17 03:20:16;;;;;;;0.40;0.35;;;19.30;72.00;;;;;;5032764;28;20034;-68
2023/02/17 03:22:44;;;;;;;0.38;0.38;;;19.40;72.10;;;;;;5031196;28;20034;-68
2023/02/17 03:25:09;;;;;;;0.57;0.30;;;19.40;72.20;;;;;;5031223;28;20017;-68
2023/02/17 03:27:35;;;;;;;2.75;0.40;;;19.30;72.20;;;;;;5031262;28;20460;-68
2023/02/17 03:30:01;;;;;;;1.08;0.40;;;19.40;72.30;;;;;;5032416;28;20388;-68
2023/02/17 03:32:26;;;;;;;0.65;0.47;;;19.30;72.30;;;;;;5032440;28;20096;-68
2023/02/17 03:34:52;;;;;;;0.25;0.20;;;19.40;72.30;;;;;;5031243;28;20435;-68
2023/02/17 03:37:18;;;;;;;0.70;0.40;;;19.40;72.40;;;;;;5036660;28;20100;-68
2023/02/17 03:39:43;;;;;;;0.50;0.30;;;19.30;72.30;;;;;;5052007;28;20407;-68
2023/02/17 03:42:09;;;;;;;0.60;0.40;;;19.30;72.30;;;;;;5052354;28;20372;-68
2023/02/17 03:44:35;;;;;;;0.68;0.30;;;19.30;72.40;;;;;;5052216;28;20033;-68
2023/02/17 03:47:01;;;;;;;0.32;0.32;;;19.30;72.40;;;;;;5052204;28;20021;-68
2023/02/17 03:49:26;;;;;;;0.75;0.40;;;19.30;72.40;;;;;;5050795;28;20487;-68
2023/02/17 03:51:52;;;;;;;0.70;0.30;;;19.30;72.40;;;;;;5052135;28;20078;-68
2023/02/17 03:54:17;;;;;;;0.30;0.30;;;19.30;72.30;;;;;;5052140;28;20506;-68
2023/02/17 03:56:43;;;;;;;1.45;0.30;;;19.30;72.30;;;;;;5049579;28;20033;-68
2023/02/17 03:59:08;;;;;;;1.40;0.25;;;19.30;72.50;;;;;;5041316;28;20030;-68
2023/02/17 04:01:34;;;;;;;3.15;0.40;;;19.30;72.50;;;;;;5043865;28;20029;-68
2023/02/17 04:04:00;;;;;;;4.07;0.28;;;19.30;72.60;;;;;;5036325;28;20057;-68
2023/02/17 04:06:25;;;;;;;1.02;0.30;;;19.30;72.50;;;;;;5036206;28;20029;-68
2023/02/17 04:08:51;;;;;;;0.80;0.32;;;19.30;72.60;;;;;;5035658;28;20033;-68
2023/02/17 04:11:16;;;;;;;3.40;0.45;;;19.30;72.70;;;;;;5036055;28;20391;-68
2023/02/17 04:13:42;;;;;;;0.77;0.20;;;19.30;72.70;;;;;;5035901;28;20021;-68
2023/02/17 04:16:08;;;;;;;0.50;0.30;;;19.40;72.80;;;;;;5035947;28;20032;-68
2023/02/17 04:18:34;;;;;;;1.83;0.47;;;19.30;72.70;;;;;;5034672;28;20411;-68
2023/02/17 04:21:00;;;;;;;1.10;0.20;;;19.30;72.80;;;;;;5034595;28;20030;-68
2023/02/17 04:23:25;;;;;;;0.57;0.40;;;19.30;72.80;;;;;;5035614;28;20033;-68
2023/02/17 04:25:51;;;;;;;1.10;0.45;;;19.30;72.80;;;;;;5035662;28;20542;-68
2023/02/17 04:28:17;;;;;;;1.70;0.40;;;19.40;72.80;;;;;;5035674;28;20584;-68
2023/02/17 04:30:46;;;;;;;1.88;0.40;;;19.40;72.70;;;;;;5034648;28;20029;-68
2023/02/17 04:33:12;;;;;;;2.58;0.30;;;19.40;72.70;;;;;;5034432;28;20017;-68
2023/02/17 04:35:38;;;;;;;1.30;0.38;;;19.30;72.70;;;;;;5034473;28;20028;-68
2023/02/17 04:38:04;;;;;;;0.75;0.30;;;19.40;72.90;;;;;;5044696;28;20025;-68
2023/02/17 04:40:30;;;;;;;1.75;0.28;;;19.30;72.80;;;;;;5054313;28;20017;-68
2023/02/17 04:42:55;;;;;;;2.40;0.20;;;19.40;72.90;;;;;;5054299;28;20028;-68
2023/02/17 04:45:21;;;;;;;1.67;0.30;;;19.30;72.80;;;;;;5055227;28;20029;-68
2023/02/17 04:47:46;;;;;;;1.45;0.20;;;19.30;72.90;;;;;;5055189;28;20021;-68
2023/02/17 04:50:12;;;;;;;2.45;0.50;;;19.40;72.90;;;;;;5055322;28;20025;-68
2023/02/17 04:52:38;;;;;;;0.35;0.30;;;19.30;72.80;;;;;;5053860;28;20415;-68
2023/02/17 04:55:04;;;;;;;4.18;0.50;;;19.30;72.80;;;;;;5054195;28;20436;-68
2023/02/17 04:57:30;;;;;;;1.50;0.38;;;19.30;72.80;;;;;;5053891;28;20376;-68
2023/02/17 04:59:55;;;;;;;0.50;0.40;;;19.40;72.80;;;;;;5053939;28;20032;-68
2023/02/17 05:02:21;;;;;;;0.73;0.30;;;19.40;72.80;;;;;;5055105;28;20025;-68
2023/02/17 05:04:47;;;;;;;0.60;0.30;;;19.30;72.80;;;;;;5053880;28;20032;-68
2023/02/17 05:07:13;;;;;;;0.98;0.20;;;19.30;72.70;;;;;;5054796;28;20021;-68
2023/02/17 05:09:39;;;;;;;2.75;0.28;;;19.30;72.70;;;;;;5041931;28;20443;-68
2023/02/17 05:12:06;;;;;;;1.65;0.28;;;19.30;72.70;;;;;;5034603;28;20060;-68
2023/02/17 05:14:32;;;;;;;1.77;0.30;;;19.30;72.70;;;;;;5034617;28;20021;-68
2023/02/17 05:16:57;;;;;;;0.47;0.40;;;19.30;72.70;;;;;;5033575;28;20017;-68
2023/02/17 05:19:23;;;;;;;0.57;0.22;;;19.30;72.70;;;;;;5034889;28;20056;-68
2023/02/17 05:21:50;;;;;;;1.55;0.30;;;19.30;72.60;;;;;;5034431;28;20053;-68
2023/02/17 05:24:16;;;;;;;1.35;0.30;;;19.30;72.60;;;;;;5034726;28;20026;-68
2023/02/17 05:26:41;;;;;;;1.25;0.30;;;19.30;72.70;;;;;;5033445;28;20025;-68
2023/02/17 05:29:07;;;;;;;1.60;0.40;;;19.30;72.60;;;;;;5034333;28;20096;-68
2023/02/17 05:31:32;;;;;;;0.60;0.20;;;19.30;72.70;;;;;;5033542;28;20109;-68
2023/02/17 05:33:58;;;;;;;2.10;0.40;;;19.30;72.60;;;;;;5034417;28;20056;-68
2023/02/17 05:36:24;;;;;;;0.90;0.40;;;19.30;72.60;;;;;;5034334;28;20083;-68
2023/02/17 05:38:50;;;;;;;1.60;0.28;;;19.30;72.60;;;;;;5051409;28;20025;-68
2023/02/17 05:41:16;;;;;;;1.70;0.30;;;19.30;72.60;;;;;;5054373;28;20048;-68
2023/02/17 05:43:42;;;;;;;2.70;0.40;;;19.30;72.70;;;;;;5036741;28;20368;-68
2023/02/17 05:46:07;;;;;;;1.55;0.30;;;19.30;72.70;;;;;;5052966;28;20032;-68
2023/02/17 05:48:33;;;;;;;1.52;0.30;;;19.30;72.70;;;;;;5054144;28;20411;-68
2023/02/17 05:50:59;;;;;;;0.70;0.50;;;19.30;72.70;;;;;;5053865;28;20100;-68
2023/02/17 05:53:25;;;;;;;1.17;0.28;;;19.30;72.70;;;;;;5053020;28;20031;-68
2023/02/17 05:55:50;;;;;;;0.57;0.30;;;19.30;72.70;;;;;;5053866;28;20107;-68
2023/02/17 05:58:16;;;;;;;0.75;0.32;;;19.30;72.70;;;;;;5054203;28;20031;-68
2023/02/17 06:00:41;;;;;;;0.88;0.50;;;19.30;72.70;;;;;;5054011;28;20069;-68
2023/02/17 06:03:07;;;;;;;0.43;0.20;;;19.30;72.80;;;;;;5052750;28;20479;-68
2023/02/17 06:05:33;;;;;;;0.55;0.40;;;19.30;72.80;;;;;;5053644;28;20071;-68
2023/02/17 06:07:58;;;;;;;0.20;0.20;;;19.30;72.80;;;;;;5053724;28;20029;-68
2023/02/17 06:10:24;;;;;;;1.35;0.40;;;19.30;72.80;;;;;;5035738;28;20025;-68
2023/02/17 06:12:49;;;;;;;0.32;0.32;;;19.30;72.90;;;;;;5016205;28;20028;-68
2023/02/17 06:15:15;;;;;;;0.30;0.30;;;19.30;72.90;;;;;;5033629;28;20025;-68
2023/02/17 06:17:41;;;;;;;1.40;0.30;;;19.30;72.90;;;;;;5032753;28;20464;-68
2023/02/17 06:20:07;;;;;;;1.58;0.40;;;19.30;73.00;;;;;;5033273;28;20014;-68
2023/02/17 06:22:33;;;;;;;0.40;0.40;;;19.30;73.00;;;;;;5032287;28;20033;-68
2023/02/17 06:24:58;;;;;;;1.55;0.43;;;19.30;73.00;;;;;;5032362;28;20029;-68
2023/02/17 06:27:24;;;;;;;0.90;0.30;;;19.30;73.00;;;;;;5032181;28;20076;-68
2023/02/17 06:29:50;;;;;;;0.90;0.38;;;19.30;72.90;;;;;;5033247;28;20025;-68
2023/02/17 06:32:15;;;;;;;0.30;0.30;;;19.30;73.00;;;;;;5033544;28;20075;-68
2023/02/17 06:34:41;;;;;;;0.38;0.22;;;19.30;73.10;;;;;;5042931;28;20022;-68
2023/02/17 06:37:06;;;;;;;0.47;0.30;;;19.30;73.00;;;;;;5036153;28;20029;-68
2023/02/17 06:39:32;;;;;;;0.60;0.60;;;19.30;73.00;;;;;;5052393;28;20537;-68
2023/02/17 06:41:58;;;;;;;0.40;0.20;;;19.30;72.90;;;;;;5053440;28;20403;-68
2023/02/17 06:44:23;;;;;;;0.70;0.22;;;19.30;72.90;;;;;;5053461;28;20070;-68
2023/02/17 06:46:49;;;;;;;0.32;0.20;;;19.30;72.80;;;;;;5053663;28;20095;-68
2023/02/17 06:49:14;;;;;;;4.03;0.40;;;19.30;72.90;;;;;;5053305;28;20040;-68
2023/02/17 06:51:40;;;;;;;2.08;0.30;;;19.30;72.80;;;;;;5053352;28;20464;-68
2023/02/17 06:54:06;;;;;;;1.38;0.22;;;19.20;72.70;;;;;;5053214;28;20032;-68
2023/02/17 06:56:31;;;;;;;0.20;0.20;;;19.20;72.70;;;;;;5053221;28;20404;-68
2023/02/17 06:58:57;;;;;;;0.43;0.25;;;19.20;72.70;;;;;;5053275;28;20025;-68
2023/02/17 07:01:25;;;;;;;1.55;0.32;;;19.20;72.60;;;;;;5053118;28;20460;-68
2023/02/17 07:03:51;;;;;;;0.60;0.30;;;19.20;72.60;;;;;;5051710;28;20526;-67
2023/02/17 07:06:17;;;;;;;0.28;0.25;;;19.20;72.50;;;;;;5051837;28;20047;-68
2023/02/17 07:08:42;;;;;;;4.13;0.57;;;19.10;72.50;;;;;;5049172;28;20399;-68
2023/02/17 07:11:09;;;;;;;0.35;0.32;;;19.10;72.40;;;;;;5031882;28;20030;-68
2023/02/17 07:13:35;;;;;;;0.20;0.20;;;19.10;72.40;;;;;;5033121;28;20014;-68
2023/02/17 07:16:00;;;;;;;0.30;0.30;;;19.10;72.30;;;;;;5031475;28;20033;-68
2023/02/17 07:18:26;;;;;;;0.40;0.30;;;19.10;72.30;;;;;;5031698;28;20021;-68
2023/02/17 07:20:52;;;;;;;0.25;0.25;;;19.10;72.30;;;;;;5031749;28;20430;-68
2023/02/17 07:23:17;;;;;;;0.40;0.20;;;19.00;72.20;;;;;;5032935;28;20033;-68
2023/02/17 07:25:43;;;;;;;1.17;0.40;;;19.00;72.20;;;;;;5031749;28;20038;-68
2023/02/17 07:28:09;;;;;;;2.40;0.88;;;19.00;72.10;;;;;;5032480;28;20072;-68
2023/02/17 07:30:40;;;;;;;1.20;0.55;;;19.00;72.10;;;;;;5014080;28;20033;-68
2023/02/17 07:33:06;;;;;;;1.65;0.68;;;19.00;72.10;;;;;;5012727;28;20053;-68
2023/02/17 07:35:32;;;;;;;2.35;0.75;;;18.90;72.00;;;;;;5027986;28;20072;-68
2023/02/17 07:37:58;;;;;;;2.30;0.32;;;18.90;71.90;;;;;;5038403;28;20082;-68
2023/02/17 07:40:24;;;;;;;3.65;0.82;;;18.90;72.00;;;;;;5049143;28;20025;-68
2023/02/17 07:42:50;;;;;;;4.18;0.70;;;18.90;71.90;;;;;;5036769;28;20026;-68
2023/02/17 07:45:15;;;;;;;1.00;0.60;;;18.90;71.90;;;;;;5046411;28;20153;-68
2023/02/17 07:47:41;;;;;;;1.58;0.70;;;18.90;71.90;;;;;;5031439;28;20404;-68
2023/02/17 07:50:07;;;;;;;1.60;0.68;;;18.90;71.80;;;;;;5039916;28;20029;-68
2023/02/17 07:52:33;;;;;;;1.27;0.40;;;18.90;71.70;;;;;;5052229;28;20028;-68
2023/02/17 07:54:58;;;;;;;0.50;0.40;;;18.80;71.70;;;;;;5050948;28;20025;-68
2023/02/17 07:57:24;;;;;;;2.33;1.00;;;18.80;71.60;;;;;;5051993;28;20419;-68
2023/02/17 07:59:49;;;;;;;2.53;1.00;;;18.80;71.60;;;;;;5032604;28;20030;-68
2023/02/17 08:02:15;;;;;;;3.17;1.00;;;18.80;71.60;;;;;;5031799;28;20105;-68
2023/02/17 08:04:41;;;;;;;2.17;0.80;;;18.80;71.70;;;;;;5032095;28;20460;-68
2023/02/17 08:07:06;;;;;;;1.63;0.60;;;18.80;71.60;;;;;;5030861;28;20029;-68
2023/02/17 08:15:01;;;;;;;1.90;0.60;;;18.70;71.40;;;;;;5035746;28;20055;-68
2023/02/17 08:17:27;;;;;;;1.85;0.70;;;18.70;71.40;;;;;;5050492;28;20495;-68
2023/02/17 08:19:54;;;;;;;1.98;0.77;;;18.70;71.50;;;;;;5050551;28;20439;-68
2023/02/17 08:22:19;;;;;;;1.08;0.50;;;18.70;71.50;;;;;;5051808;28;20100;-68
2023/02/17 08:24:45;;;;;;;1.05;0.65;;;18.60;71.50;;;;;;5051902;28;20109;-68
2023/02/17 08:27:12;;;;;;;2.58;0.70;;;18.60;71.50;;;;;;5051446;28;20395;-68
2023/02/17 08:29:38;;;;;;;1.58;0.68;;;18.60;71.50;;;;;;5050727;28;20029;-68
2023/02/17 08:32:04;;;;;;;0.75;0.52;;;18.60;71.50;;;;;;5051620;28;20557;-68
2023/02/17 08:34:32;;;;;;;1.50;0.77;;;18.60;71.40;;;;;;5050601;28;20086;-68
2023/02/17 08:37:02;;;;;;;0.95;0.60;;;18.60;71.40;;;;;;5051733;28;20096;-68
2023/02/17 08:39:28;;;;;;;1.58;0.60;;;18.60;71.30;;;;;;5050524;28;20025;-68
2023/02/17 08:41:53;;;;;;;1.10;0.70;;;18.60;71.30;;;;;;5039299;28;20104;-68
2023/02/17 08:44:21;;;;;;;1.52;0.50;;;18.50;71.40;;;;;;5031530;28;20033;-68
2023/02/17 08:46:47;;;;;;;1.17;0.52;;;18.50;71.40;;;;;;5031728;28;20056;-68
2023/02/17 08:49:14;;;;;;;1.33;0.80;;;18.50;71.30;;;;;;5037476;28;20017;-68
2023/02/17 08:51:40;;;;;;;0.73;0.60;;;18.50;71.40;;;;;;5055391;28;20014;-68
2023/02/17 08:54:06;;;;;;;3.45;0.70;;;18.50;71.30;;;;;;5053909;28;20083;-68
2023/02/17 08:56:32;;;;;;;0.70;0.60;;;18.50;71.40;;;;;;5037390;28;20096;-68
2023/02/17 08:58:58;;;;;;;1.85;0.90;;;18.40;71.30;;;;;;5037373;28;20071;-68
2023/02/17 09:01:24;;;;;;;0.70;0.50;;;18.40;71.20;;;;;;5053694;28;20017;-68
2023/02/17 09:03:51;;;;;;;1.13;0.50;;;18.40;71.30;;;;;;5055052;28;20033;-68
2023/02/17 09:06:16;;;;;;;3.83;1.13;;;18.40;71.20;;;;;;5053639;28;20495;-68
2023/02/17 09:08:42;;;;;;;1.65;0.50;;;18.40;71.30;;;;;;5037098;28;20029;-68
2023/02/17 09:11:08;;;;;;;0.88;0.80;;;18.40;71.20;;;;;;5053873;28;20021;-68
2023/02/17 09:13:34;;;;;;;1.10;0.57;;;18.40;71.20;;;;;;5053464;28;20036;-68
2023/02/17 09:15:59;;;;;;;0.85;0.77;;;18.30;71.20;;;;;;5053526;28;20491;-68
2023/02/17 09:18:25;;;;;;;0.50;0.50;;;18.30;71.20;;;;;;5053447;28;20032;-68
2023/02/17 09:20:51;;;;;;;0.93;0.55;;;18.30;71.20;;;;;;5054996;28;20442;-68
2023/02/17 09:23:16;;;;;;;1.10;0.60;;;18.30;71.20;;;;;;5036726;28;20399;-68
2023/02/17 09:25:42;;;;;;;1.73;0.73;;;18.30;71.20;;;;;;5053495;28;20079;-68
2023/02/17 09:28:08;;;;;;;0.60;0.47;;;18.30;71.20;;;;;;5054266;28;20053;-68
2023/02/17 09:30:33;;;;;;;0.85;0.60;;;18.30;71.10;;;;;;5054441;28;20025;-68
2023/02/17 09:32:59;;;;;;;1.48;0.60;;;18.20;71.10;;;;;;5053420;28;20021;-68
2023/02/17 09:35:25;;;;;;;1.15;0.70;;;18.20;71.10;;;;;;5054374;28;20025;-68
2023/02/17 09:37:50;;;;;;;0.68;0.60;;;18.20;71.10;;;;;;5053352;28;20108;-68
2023/02/17 09:40:18;;;;;;;1.05;0.57;;;18.20;71.10;;;;;;5053149;28;20032;-68
2023/02/17 09:42:44;;;;;;;1.08;0.60;;;18.20;71.20;;;;;;5034820;28;20112;-68
2023/02/17 09:45:18;;;;;;;0.93;0.50;;;18.20;71.10;;;;;;5033120;28;20105;-68
2023/02/17 09:47:46;;;;;;;1.58;0.60;;;18.20;71.00;;;;;;5033289;28;20087;-68
2023/02/17 09:50:18;;;;;;;1.92;0.70;;;18.20;71.00;;;;;;5045556;28;20407;-68
2023/02/17 09:52:56;;;;;;;0.90;0.65;;;18.20;70.90;;;;;;5052872;28;20029;-68
2023/02/17 09:55:51;;;;;;;1.58;0.57;;;18.20;70.90;;;;;;5052906;28;20021;-68
2023/02/17 09:58:18;;;;;;;1.38;0.70;;;18.20;70.90;;;;;;5052475;28;20064;-68
2023/02/17 10:00:54;;;;;;;0.70;0.50;;;18.10;70.90;;;;;;5053713;28;20028;-68
2023/02/17 10:03:23;;;;;;;0.95;0.50;;;18.10;70.90;;;;;;5037378;28;20029;-68
2023/02/17 10:05:52;;;;;;;0.80;0.50;;;18.10;70.80;;;;;;5053873;28;20021;-68
2023/02/17 10:08:22;;;;;;;1.05;0.60;;;18.10;70.90;;;;;;5036357;28;20068;-68
2023/02/17 10:11:07;;;;;;;1.45;0.70;;;18.10;70.90;;;;;;5036242;28;20055;-68
2023/02/17 10:13:33;;;;;;;0.93;0.50;;;18.10;70.80;;;;;;5036524;28;20455;-68
2023/02/17 10:16:02;;;;;;;0.65;0.50;;;18.10;70.90;;;;;;5052385;28;20053;-68
2023/02/17 10:18:39;;;;;;;0.82;0.70;;;18.00;70.80;;;;;;5035936;28;20108;-68
2023/02/17 10:21:20;;;;;;;0.82;0.60;;;18.10;70.80;;;;;;5036775;28;20024;-68
2023/02/17 10:23:46;;;;;;;1.02;0.43;;;18.00;70.80;;;;;;5052404;28;20021;-68
2023/02/17 10:26:15;;;;;;;0.98;0.50;;;18.00;70.80;;;;;;5052149;28;20029;-68
2023/02/17 10:29:00;;;;;;;1.05;0.60;;;18.00;70.80;;;;;;5053262;28;20045;-68
2023/02/17 10:31:45;;;;;;;1.92;0.45;;;18.00;70.70;;;;;;5053306;28;20083;-68
2023/02/17 10:34:42;;;;;;;0.90;0.50;;;18.00;70.80;;;;;;5053192;28;20070;-68
2023/02/17 10:37:14;;;;;;;1.05;0.50;;;18.00;70.90;;;;;;5051511;28;20112;-68
2023/02/17 10:39:49;;;;;;;0.73;0.50;;;17.90;70.80;;;;;;5035666;28;20487;-68
2023/02/17 10:42:34;;;;;;;1.13;0.60;;;17.90;70.80;;;;;;5038945;28;20029;-68
2023/02/17 10:45:23;;;;;;;0.45;0.45;;;17.90;70.80;;;;;;5032216;28;20123;-68
2023/02/17 10:47:48;;;;;;;0.40;0.40;;;17.90;70.90;;;;;;5032069;28;20025;-68
2023/02/17 10:50:20;;;;;;;0.75;0.50;;;17.90;70.90;;;;;;5044596;28;20090;-68
2023/02/17 10:52:45;;;;;;;0.50;0.50;;;17.90;70.90;;;;;;5051689;28;20439;-68
2023/02/17 10:55:20;;;;;;;1.45;0.60;;;17.90;70.80;;;;;;5051582;28;20159;-68
2023/02/17 10:57:46;;;;;;;0.77;0.60;;;17.90;70.90;;;;;;5035787;28;20021;-68
2023/02/17 11:00:15;;;;;;;0.70;0.40;;;17.80;71.90;;;;;;5035175;28;20033;-68
2023/02/17 11:02:46;;;;;;;0.60;0.60;;;17.90;70.90;;;;;;5052862;28;20021;-68
2023/02/17 11:05:32;;;;;;;1.30;0.50;;;17.80;70.70;;;;;;5035045;28;20090;-67
2023/02/17 11:08:05;;;;;;;1.00;0.43;;;17.80;70.70;;;;;;5051356;28;20024;-68
2023/02/17 11:10:33;;;;;;;0.40;0.40;;;17.80;70.70;;;;;;5034458;28;20048;-68
2023/02/17 11:13:01;;;;;;;0.82;0.50;;;17.80;70.70;;;;;;5051644;28;20021;-68
2023/02/17 11:15:35;;;;;;;0.50;0.50;;;17.80;70.70;;;;;;5051360;28;20082;-67
2023/02/17 11:18:01;;;;;;;0.50;0.40;;;17.80;70.80;;;;;;5035868;28;20021;-68
2023/02/17 11:20:31;;;;;;;0.65;0.50;;;17.80;70.70;;;;;;5051272;28;20032;-68
2023/02/17 11:23:13;;;;;;;0.68;0.50;;;17.80;70.80;;;;;;5035477;28;20083;-68
2023/02/17 11:25:39;;;;;;;0.50;0.40;;;17.70;70.70;;;;;;5051186;28;20475;-68
2023/02/17 11:28:13;;;;;;;0.40;0.40;;;17.70;70.80;;;;;;5051095;28;20096;-68
2023/02/17 11:30:40;;;;;;;0.38;0.38;;;17.70;70.80;;;;;;5035456;28;20025;-68
2023/02/17 11:33:11;;;;;;;1.08;0.63;;;17.70;70.80;;;;;;5051200;28;20045;-68
2023/02/17 11:35:37;;;;;;;0.52;0.52;;;17.70;70.80;;;;;;5051057;28;20029;-68
2023/02/17 11:38:33;;;;;;;0.98;0.60;;;17.70;70.70;;;;;;5052247;28;20021;-68
2023/02/17 11:41:03;;;;;;;0.38;0.38;;;17.70;70.80;;;;;;5047505;28;20029;-68
2023/02/17 11:43:29;;;;;;;0.88;0.50;;;17.70;70.80;;;;;;5031131;28;20075;-68
2023/02/17 11:46:05;;;;;;;0.52;0.52;;;17.70;70.80;;;;;;5031164;28;20025;-68
2023/02/17 11:48:34;;;;;;;0.60;0.50;;;17.60;70.70;;;;;;5030910;28;20032;-68
2023/02/17 11:51:20;;;;;;;0.82;0.50;;;17.60;70.70;;;;;;5051246;28;20029;-68
2023/02/17 11:54:16;;;;;;;0.57;0.40;;;17.60;70.70;;;;;;5050838;28;20036;-68
2023/02/17 11:56:45;;;;;;;1.23;0.63;;;17.60;70.70;;;;;;5051884;28;20082;-68
2023/02/17 11:59:33;;;;;;;0.85;0.60;;;17.60;70.60;;;;;;5051042;28;20028;-68
2023/02/17 12:01:59;;;;;;;0.65;0.40;;;17.60;70.60;;;;;;5051043;28;20025;-68
2023/02/17 12:04:29;;;;;;;0.43;0.38;;;17.60;70.70;;;;;;5051912;28;20082;-68
2023/02/17 12:06:57;;;;;;;0.60;0.60;;;17.60;70.80;;;;;;5051024;28;20029;-68
2023/02/17 12:09:41;;;;;;;0.40;0.40;;;17.60;70.70;;;;;;5052003;28;20021;-68
2023/02/17 12:12:21;;;;;;;3.15;0.60;;;17.50;70.70;;;;;;5052012;28;20040;-68
2023/02/17 12:14:49;;;;;;;0.50;0.40;;;17.50;70.70;;;;;;5051721;28;20028;-68
2023/02/17 12:17:27;;;;;;;0.40;0.30;;;17.50;70.80;;;;;;5051795;28;20057;-68
2023/02/17 12:19:58;;;;;;;1.00;0.45;;;17.50;70.80;;;;;;5050775;28;20021;-68
2023/02/17 12:23:09;;;;;;;0.55;0.50;;;17.50;70.70;;;;;;5052117;28;20033;-68
2023/02/17 12:25:46;;;;;;;0.73;0.43;;;17.50;70.70;;;;;;5055796;28;20021;-68
2023/02/17 12:28:47;;;;;;;0.75;0.45;;;17.50;70.70;;;;;;5038956;28;20407;-68
2023/02/17 12:31:41;;;;;;;0.88;0.55;;;17.50;70.70;;;;;;5036780;28;20045;-68
2023/02/17 12:34:25;;;;;;;0.60;0.32;;;17.50;70.80;;;;;;5053334;28;20032;-68
2023/02/17 12:36:51;;;;;;;0.93;0.70;;;17.50;70.70;;;;;;5053423;28;20036;-68
2023/02/17 12:39:18;;;;;;;0.90;0.47;;;17.50;70.80;;;;;;5053386;28;20025;-68
2023/02/17 12:42:07;;;;;;;0.70;0.47;;;17.40;70.70;;;;;;5036484;28;20021;-68
2023/02/17 12:44:45;;;;;;;0.38;0.38;;;17.40;70.80;;;;;;5022667;28;20040;-68
2023/02/17 12:47:30;;;;;;;0.40;0.32;;;17.40;70.70;;;;;;5020374;28;20108;-68
2023/02/17 12:50:10;;;;;;;1.00;0.52;;;17.40;70.60;;;;;;5010469;28;20033;-68
2023/02/17 12:52:40;;;;;;;0.60;0.38;;;17.40;70.70;;;;;;5032825;28;20168;-68
2023/02/17 12:55:23;;;;;;;1.20;0.40;;;17.40;70.70;;;;;;5016821;28;20041;-68
2023/02/17 12:57:57;;;;;;;1.40;0.47;;;17.40;70.70;;;;;;5016622;28;20132;-68
2023/02/17 13:00:42;;;;;;;0.43;0.30;;;17.40;70.60;;;;;;5016782;28;20041;-68
2023/02/17 13:03:08;;;;;;;1.10;0.45;;;17.40;70.70;;;;;;5016577;28;20432;-68
2023/02/17 13:05:55;;;;;;;1.10;0.50;;;17.30;70.60;;;;;;5016138;28;20041;-68